Overland Park, Kansas
Current Conditions -  °F | °C
As of 7:53 PM on Saturday 22 Nov 2014 (Local Time) from KOJC Reporting Station
Overcast Overcast  
Wind Chill: 55°   Ceiling: 1600
Heat Index: 55°   Visibility: 10mi
Dew Point: 51°   Wind: 16mph
Humidity: 86%   Direction: 180°S
Pressure: 29.74"   Gusts: 23mph
Location:  38.98°N, 94.67°W
Report Text: KOJC 230153Z 18014G20KT 10SM OVC016 13/11 A2974 RMK AO2 SLP068 T01280106
Loading
Personal Weather Stations






























Interactive Weather Map New forecast layout! Learn more

10-Day Weather Forecast

Advertisements
Track Severe Weather on mobile